Terminal Aerodrome Forecast
Issued by NWS

Home | Current Version | Previous Version | Graphics & Text | Print | Product List | Glossary On
Versions: 1 2 3 4 5 6 7 8 9 10 11 12 13 14 15
000
FTUS43 KOAX 151700
TAFCDR
TAF
KCDR 151720Z 1518/1618 26014G20KT P6SM BKN200
     FM160200 23012KT P6SM VCSH OVC080
     FM160800 28015KT P6SM -SHRA SCT020 BKN040=

USA.gov is the U.S. government's official web portal to all federal, state and local government web resources and services.